Time;durP1;ratioP1;P1;durP2;ratioP2;P2;SDS_P1;SDS_P2;PMS_P1;PMS_P2;Temp;Humidity;BMP_temperature;BMP_pressure;BME280_temperature;BME280_humidity;BME280_pressure;Samples;Min_cycle;Max_cycle;Signal;HPM_P1;HPM_P2
2022/11/16 00:01:26;;;;;;;17.50;9.30;;;11.30;72.20;;;;;;5092772;28;20051;-59
2022/11/16 00:03:55;;;;;;;14.00;9.27;;;11.30;72.40;;;;;;5108270;28;20032;-58
2022/11/16 00:06:22;;;;;;;22.48;10.57;;;11.20;72.40;;;;;;5109915;28;20110;-59
2022/11/16 00:11:47;;;;;;;15.90;9.75;;;11.30;72.50;;;;;;5107384;28;20046;-58
2022/11/16 00:14:13;;;;;;;17.55;9.77;;;11.30;72.30;;;;;;5105591;28;20016;-59
2022/11/16 00:16:39;;;;;;;17.35;9.45;;;11.30;72.40;;;;;;5090755;28;20070;-59
2022/11/16 00:19:05;;;;;;;18.52;9.93;;;11.30;72.40;;;;;;5111536;28;20038;-59
2022/11/16 00:21:32;;;;;;;19.45;9.38;;;11.30;72.40;;;;;;5103986;28;20133;-59
2022/11/16 00:23:58;;;;;;;15.73;9.38;;;11.30;72.50;;;;;;5108613;28;20020;-59
2022/11/16 00:26:24;;;;;;;16.02;9.30;;;11.30;72.50;;;;;;5103379;28;20039;-59
2022/11/16 00:28:52;;;;;;;12.60;8.52;;;11.30;72.50;;;;;;5114248;28;20035;-58
2022/11/16 00:31:18;;;;;;;13.93;8.93;;;11.30;72.60;;;;;;5108350;28;20023;-58
2022/11/16 00:33:44;;;;;;;15.85;9.27;;;11.20;72.50;;;;;;5108358;28;20035;-58
2022/11/16 00:36:11;;;;;;;17.15;10.20;;;11.20;72.60;;;;;;5084240;28;20028;-59
2022/11/16 00:38:37;;;;;;;16.55;9.07;;;11.20;72.70;;;;;;5109449;28;20058;-61
2022/11/16 00:41:03;;;;;;;13.70;9.00;;;11.20;72.60;;;;;;5101313;28;20070;-59
2022/11/16 00:43:29;;;;;;;15.35;9.80;;;11.20;72.60;;;;;;5103644;28;20067;-61
2022/11/16 00:45:55;;;;;;;16.25;9.13;;;11.30;72.80;;;;;;5105109;28;20028;-60
2022/11/16 00:48:20;;;;;;;14.75;9.02;;;11.20;72.70;;;;;;5111496;28;20043;-58
2022/11/16 00:50:46;;;;;;;19.45;9.63;;;11.20;72.70;;;;;;5100744;28;20045;-59
2022/11/16 00:53:15;;;;;;;12.70;9.00;;;11.20;72.80;;;;;;5084537;28;20020;-59
2022/11/16 00:55:42;;;;;;;19.23;9.77;;;11.30;72.90;;;;;;5102995;28;20016;-61
2022/11/16 00:58:08;;;;;;;15.02;9.48;;;11.20;72.80;;;;;;5109893;28;20024;-59
2022/11/16 01:00:34;;;;;;;13.48;8.90;;;11.20;72.80;;;;;;5105990;28;20038;-60
2022/11/16 01:02:59;;;;;;;16.38;9.18;;;11.30;73.00;;;;;;5108745;28;20053;-58
2022/11/16 01:05:25;;;;;;;18.55;10.18;;;11.30;73.00;;;;;;5104756;28;20035;-59
2022/11/16 01:07:52;;;;;;;15.88;9.27;;;11.30;73.00;;;;;;5104280;28;20028;-60
2022/11/16 01:10:20;;;;;;;12.27;8.43;;;11.20;72.80;;;;;;5103713;28;20102;-60
2022/11/16 01:12:48;;;;;;;14.70;8.68;;;11.30;73.00;;;;;;5104827;28;20020;-59
2022/11/16 01:15:15;;;;;;;15.57;8.68;;;11.20;72.80;;;;;;5097585;28;20028;-58
2022/11/16 01:17:42;;;;;;;17.13;8.65;;;11.20;72.90;;;;;;5108080;28;20049;-60
2022/11/16 01:20:12;;;;;;;16.65;9.05;;;11.20;73.00;;;;;;5106932;28;20096;-58
2022/11/16 01:22:38;;;;;;;14.88;8.68;;;11.20;73.00;;;;;;5106263;28;20032;-60
2022/11/16 01:25:05;;;;;;;15.05;9.10;;;11.20;73.10;;;;;;5092543;28;20562;-59
2022/11/16 01:27:31;;;;;;;12.60;8.25;;;11.30;73.20;;;;;;5099625;28;20042;-59
2022/11/16 01:29:56;;;;;;;16.30;8.77;;;11.20;73.20;;;;;;5109161;28;20032;-59
2022/11/16 01:32:22;;;;;;;12.60;8.43;;;11.20;73.20;;;;;;5115192;28;20107;-58
2022/11/16 01:34:49;;;;;;;14.50;8.57;;;11.20;73.30;;;;;;5098933;28;20070;-60
2022/11/16 01:37:15;;;;;;;13.80;8.52;;;11.20;73.30;;;;;;5082281;28;20498;-59
2022/11/16 01:39:41;;;;;;;13.32;8.10;;;11.20;73.40;;;;;;5103267;28;20101;-60
2022/11/16 01:42:12;;;;;;;12.20;7.70;;;11.30;73.50;;;;;;5086335;28;20035;-59
2022/11/16 01:44:40;;;;;;;9.98;7.70;;;11.30;73.50;;;;;;5102045;28;20016;-58
2022/11/16 01:47:10;;;;;;;11.40;7.60;;;11.30;73.60;;;;;;5104983;28;20395;-60
2022/11/16 01:49:41;;;;;;;10.90;7.68;;;11.30;73.50;;;;;;5109574;28;20092;-60
2022/11/16 01:52:12;;;;;;;14.63;8.07;;;11.30;73.50;;;;;;5103957;28;20051;-58
2022/11/16 01:54:40;;;;;;;13.35;7.68;;;11.30;73.50;;;;;;5096184;28;20024;-59
2022/11/16 01:57:11;;;;;;;10.95;8.25;;;11.30;73.60;;;;;;5102649;28;20028;-58
2022/11/16 01:59:38;;;;;;;11.43;6.78;;;11.30;73.60;;;;;;5093649;28;20016;-59
2022/11/16 02:02:04;;;;;;;12.27;7.38;;;11.30;73.60;;;;;;5093535;28;20031;-60
2022/11/16 02:04:30;;;;;;;11.88;7.25;;;11.30;73.60;;;;;;5101589;28;20025;-60
2022/11/16 02:07:08;;;;;;;10.18;6.55;;;11.30;73.60;;;;;;5096843;28;20039;-59
2022/11/16 02:09:54;;;;;;;9.90;6.75;;;11.30;73.50;;;;;;5092666;28;20027;-59
2022/11/16 02:12:47;;;;;;;11.00;6.80;;;11.30;73.50;;;;;;5105184;28;20047;-58
2022/11/16 02:15:18;;;;;;;9.80;7.10;;;11.20;73.80;;;;;;5106432;28;20049;-59
2022/11/16 02:17:54;;;;;;;12.88;7.00;;;11.30;73.80;;;;;;5087595;28;20079;-58
2022/11/16 02:20:56;;;;;;;10.80;6.55;;;11.20;73.70;;;;;;5098805;28;20028;-59
2022/11/16 02:23:34;;;;;;;10.40;5.57;;;11.30;74.30;;;;;;5103968;28;20024;-60
2022/11/16 02:26:02;;;;;;;8.98;5.10;;;11.30;73.70;;;;;;5107574;28;20063;-58
2022/11/16 02:28:35;;;;;;;11.60;5.72;;;11.30;73.80;;;;;;5102710;28;20107;-59
2022/11/16 02:31:05;;;;;;;10.88;5.93;;;11.20;74.00;;;;;;5084408;28;20024;-58
2022/11/16 02:33:35;;;;;;;9.23;5.40;;;11.30;74.10;;;;;;5113673;28;20024;-58
2022/11/16 02:36:04;;;;;;;7.63;5.22;;;11.30;74.20;;;;;;5104301;28;20024;-58
2022/11/16 02:38:35;;;;;;;12.38;5.70;;;11.30;74.10;;;;;;5089425;28;20024;-60
2022/11/16 02:41:07;;;;;;;9.57;5.65;;;11.30;74.10;;;;;;5104000;28;20024;-59
2022/11/16 02:43:46;;;;;;;9.27;6.38;;;11.30;74.10;;;;;;5101611;28;20016;-59
2022/11/16 02:46:20;;;;;;;9.40;5.68;;;11.30;74.40;;;;;;5110421;28;20040;-58
2022/11/16 02:48:50;;;;;;;8.65;6.18;;;11.30;74.30;;;;;;5101843;28;20536;-58
2022/11/16 02:51:17;;;;;;;9.02;5.95;;;11.30;74.20;;;;;;5105808;28;20080;-60
2022/11/16 02:54:11;;;;;;;10.32;6.13;;;11.30;74.10;;;;;;5099689;28;20053;-58
2022/11/16 02:56:57;;;;;;;7.45;5.65;;;11.30;74.80;;;;;;5098840;28;20024;-59
2022/11/16 02:59:27;;;;;;;7.88;6.10;;;11.30;74.60;;;;;;5103026;28;20048;-60
2022/11/16 03:02:18;;;;;;;7.75;5.50;;;11.30;74.30;;;;;;5112449;28;20027;-58
2022/11/16 03:04:48;;;;;;;9.30;6.18;;;11.30;74.80;;;;;;5106642;28;20024;-60
2022/11/16 03:07:19;;;;;;;8.65;5.80;;;11.30;75.00;;;;;;5109443;28;20046;-60
2022/11/16 03:09:47;;;;;;;8.90;6.28;;;11.30;74.30;;;;;;5103613;28;20072;-59
2022/11/16 03:12:17;;;;;;;11.10;6.53;;;11.30;74.40;;;;;;5113104;28;20054;-59
2022/11/16 03:14:55;;;;;;;7.50;5.80;;;11.30;74.40;;;;;;5105581;28;20024;-58
2022/11/16 03:17:24;;;;;;;8.18;6.03;;;11.30;74.70;;;;;;5104933;28;20019;-60
2022/11/16 03:19:56;;;;;;;13.88;6.78;;;11.30;74.40;;;;;;5086459;28;20023;-57
2022/11/16 03:22:54;;;;;;;8.18;5.80;;;11.30;74.30;;;;;;5105120;28;20017;-58
2022/11/16 03:25:22;;;;;;;16.90;5.60;;;11.30;74.60;;;;;;5101218;28;20084;-57
2022/11/16 03:28:11;;;;;;;11.48;5.70;;;11.30;74.40;;;;;;5101519;28;20081;-60
2022/11/16 03:30:41;;;;;;;11.43;6.20;;;11.30;74.80;;;;;;5100109;28;20453;-59
2022/11/16 03:33:31;;;;;;;9.57;6.15;;;11.30;74.40;;;;;;5098798;28;20046;-58
2022/11/16 03:36:23;;;;;;;7.50;5.55;;;11.40;74.90;;;;;;5077680;28;20036;-57
2022/11/16 03:38:51;;;;;;;9.70;6.60;;;11.40;74.90;;;;;;5099268;28;20096;-59
2022/11/16 03:41:20;;;;;;;9.32;6.47;;;11.40;74.30;;;;;;5106814;28;20486;-58
2022/11/16 03:43:48;;;;;;;11.52;6.97;;;11.30;74.40;;;;;;5114419;28;20049;-58
2022/11/16 03:46:15;;;;;;;10.93;6.38;;;11.30;74.50;;;;;;5101314;28;20043;-59
2022/11/16 03:48:41;;;;;;;10.23;6.53;;;11.30;74.60;;;;;;5108922;28;20032;-58
2022/11/16 03:51:09;;;;;;;9.50;7.07;;;11.30;74.60;;;;;;5105797;28;20035;-59
2022/11/16 03:53:35;;;;;;;13.05;6.50;;;11.30;74.80;;;;;;5107444;28;20029;-58
2022/11/16 03:56:01;;;;;;;12.25;6.35;;;11.30;74.80;;;;;;5098920;28;20055;-58
2022/11/16 03:58:27;;;;;;;9.77;6.63;;;11.30;74.50;;;;;;5108724;28;20015;-59
2022/11/16 04:00:53;;;;;;;16.20;6.97;;;11.30;74.50;;;;;;5086548;28;20043;-58
2022/11/16 04:03:19;;;;;;;9.82;6.63;;;11.30;74.50;;;;;;5107371;28;20036;-58
2022/11/16 04:25:29;;;;;;;10.55;6.13;;;11.20;74.80;;;;;;5081828;28;20040;-59
2022/11/16 04:28:15;;;;;;;10.18;6.38;;;11.20;74.60;;;;;;5098163;28;20283;-59
2022/11/16 04:39:07;;;;;;;9.75;6.15;;;11.20;74.70;;;;;;5104929;28;20088;-58
2022/11/16 04:44:18;;;;;;;;;;;11.20;74.90;;;;;;5104792;28;20038;-59
2022/11/16 04:49:33;;;;;;;10.80;5.85;;;11.30;74.60;;;;;;5098318;28;20043;-59
2022/11/16 04:51:59;;;;;;;8.18;6.25;;;11.30;74.70;;;;;;5087924;28;20062;-58
2022/11/16 04:54:25;;;;;;;7.70;5.90;;;11.30;74.80;;;;;;5083677;28;20086;-59
2022/11/16 04:56:50;;;;;;;9.23;6.22;;;11.30;74.80;;;;;;5105617;28;20083;-58
2022/11/16 04:59:16;;;;;;;10.68;6.45;;;11.30;74.80;;;;;;5105956;28;20028;-59
2022/11/16 05:04:26;;;;;;;9.27;6.00;;;11.20;74.70;;;;;;5105788;28;20035;-57
2022/11/16 05:06:52;;;;;;;13.40;6.70;;;11.20;74.70;;;;;;5105247;28;20044;-58
2022/11/16 05:09:18;;;;;;;8.25;6.25;;;11.20;74.80;;;;;;5105343;28;20036;-59
2022/11/16 05:11:43;;;;;;;9.02;6.32;;;11.20;74.80;;;;;;5101663;28;20028;-58
2022/11/16 05:14:09;;;;;;;9.93;6.78;;;11.20;74.80;;;;;;5110645;28;20106;-60
2022/11/16 05:16:35;;;;;;;9.10;6.80;;;11.20;74.80;;;;;;5104539;28;20032;-59
2022/11/16 05:21:45;;;;;;;9.48;6.45;;;11.20;74.80;;;;;;5101597;28;20046;-59
2022/11/16 05:26:55;;;;;;;9.93;6.80;;;11.20;74.80;;;;;;5105273;28;20057;-58
2022/11/16 05:29:21;;;;;;;9.75;7.03;;;11.30;74.90;;;;;;5106763;28;20091;-59
2022/11/16 05:31:47;;;;;;;8.05;6.28;;;11.30;74.90;;;;;;5102832;28;20016;-58
2022/11/16 05:34:12;;;;;;;9.13;6.53;;;11.30;75.00;;;;;;5089162;28;20028;-60
2022/11/16 05:36:38;;;;;;;9.07;6.43;;;11.20;74.90;;;;;;5105507;28;20056;-59
2022/11/16 05:39:04;;;;;;;10.77;6.65;;;11.20;75.00;;;;;;5119115;28;20032;-58
2022/11/16 05:41:31;;;;;;;9.00;6.43;;;11.20;75.00;;;;;;5101633;28;20080;-58
2022/11/16 05:43:57;;;;;;;9.48;6.40;;;11.20;74.90;;;;;;5092328;28;20034;-59
2022/11/16 05:46:23;;;;;;;13.02;6.88;;;11.20;74.90;;;;;;5089536;28;20070;-59
2022/11/16 05:48:49;;;;;;;9.15;6.43;;;11.20;74.90;;;;;;5079200;28;20062;-59
2022/11/16 05:51:15;;;;;;;12.38;7.45;;;11.20;75.00;;;;;;5007270;28;20084;-58
2022/11/16 05:53:41;;;;;;;10.68;7.05;;;11.20;75.00;;;;;;5103976;28;20024;-58
2022/11/16 05:56:07;;;;;;;24.88;14.35;;;11.20;75.10;;;;;;5107945;28;20411;-57
2022/11/16 05:58:33;;;;;;;15.60;10.40;;;11.20;75.20;;;;;;5107607;28;20031;-59
2022/11/16 06:00:58;;;;;;;12.60;7.38;;;11.20;75.10;;;;;;5106380;28;20028;-59
2022/11/16 06:03:28;;;;;;;11.25;7.53;;;11.20;75.20;;;;;;5098444;28;20024;-59
2022/11/16 06:05:55;;;;;;;10.50;7.47;;;11.20;75.30;;;;;;5110313;28;20055;-58
2022/11/16 06:08:21;;;;;;;15.15;8.27;;;11.20;75.20;;;;;;5107979;28;20036;-60
2022/11/16 06:10:47;;;;;;;10.93;7.75;;;11.30;75.30;;;;;;5112892;28;20032;-59
2022/11/16 06:13:13;;;;;;;14.32;8.20;;;11.30;75.30;;;;;;5102858;28;20035;-59
2022/11/16 06:15:39;;;;;;;11.05;7.65;;;11.30;75.40;;;;;;5109595;28;20035;-58
2022/11/16 06:18:06;;;;;;;9.98;7.80;;;11.30;75.30;;;;;;5094576;28;20053;-60
2022/11/16 06:20:32;;;;;;;10.23;7.72;;;11.30;75.30;;;;;;5126266;27;20016;-57
2022/11/16 06:22:57;;;;;;;13.85;7.45;;;11.30;75.30;;;;;;5106680;28;20026;-60
2022/11/16 06:25:23;;;;;;;15.18;7.72;;;11.30;75.30;;;;;;5112838;28;20027;-57
2022/11/16 06:27:49;;;;;;;13.20;7.07;;;11.30;75.40;;;;;;5090673;28;20016;-59
2022/11/16 06:30:15;;;;;;;15.77;8.00;;;11.30;75.40;;;;;;5111450;28;20084;-59
2022/11/16 06:32:40;;;;;;;12.18;7.65;;;11.30;75.30;;;;;;5111257;28;20020;-59
2022/11/16 06:35:06;;;;;;;17.35;8.20;;;11.30;75.30;;;;;;5109455;28;20034;-58
2022/11/16 06:37:33;;;;;;;10.10;7.55;;;11.30;75.30;;;;;;5106385;28;20021;-59
2022/11/16 06:39:58;;;;;;;10.48;7.82;;;11.30;75.40;;;;;;5112151;28;20028;-59
2022/11/16 06:42:24;;;;;;;15.43;7.95;;;11.30;75.40;;;;;;5111142;28;20020;-57
2022/11/16 06:44:50;;;;;;;10.40;7.75;;;11.40;75.30;;;;;;5110711;28;20111;-58
2022/11/16 06:47:16;;;;;;;10.80;7.32;;;11.40;75.40;;;;;;5104922;28;20062;-58
2022/11/16 06:49:41;;;;;;;14.18;9.20;;;11.40;75.50;;;;;;5098886;28;20024;-59
2022/11/16 06:52:07;;;;;;;12.40;8.60;;;11.40;75.50;;;;;;5110624;28;20028;-59
2022/11/16 06:54:33;;;;;;;12.95;8.70;;;11.40;75.50;;;;;;5102419;28;20024;-60
2022/11/16 06:56:58;;;;;;;19.15;12.13;;;11.40;75.60;;;;;;5108695;28;20024;-60
2022/11/16 06:59:24;;;;;;;19.92;13.98;;;11.40;75.70;;;;;;5092132;28;20027;-60
2022/11/16 07:01:50;;;;;;;14.45;10.23;;;11.40;75.70;;;;;;5106987;28;20020;-58
2022/11/16 07:04:15;;;;;;;14.75;9.57;;;11.40;75.70;;;;;;5101710;28;20106;-58
2022/11/16 07:06:41;;;;;;;18.08;10.35;;;11.40;75.80;;;;;;5106529;28;20210;-58
2022/11/16 07:09:08;;;;;;;14.85;9.65;;;11.40;75.70;;;;;;5109279;28;20063;-59
2022/11/16 07:11:34;;;;;;;16.25;10.02;;;11.40;75.70;;;;;;5102769;28;20028;-57
2022/11/16 07:14:01;;;;;;;15.73;9.88;;;11.40;75.80;;;;;;5112529;28;20043;-58
2022/11/16 07:16:27;;;;;;;17.48;10.05;;;11.40;75.90;;;;;;5109510;28;20558;-59
2022/11/16 07:18:55;;;;;;;14.90;10.00;;;11.40;75.90;;;;;;5106558;28;20035;-60
2022/11/16 07:21:21;;;;;;;14.85;10.25;;;11.50;76.00;;;;;;5106260;28;20028;-59
2022/11/16 07:23:46;;;;;;;16.90;10.20;;;11.50;76.10;;;;;;5109796;28;20087;-60
2022/11/16 07:26:12;;;;;;;16.52;9.95;;;11.50;76.00;;;;;;5088577;28;20031;-60
2022/11/16 07:28:38;;;;;;;16.85;11.23;;;11.50;75.90;;;;;;5111429;28;20032;-59
2022/11/16 07:31:09;;;;;;;15.77;10.52;;;11.60;75.90;;;;;;5093906;28;20047;-61
2022/11/16 07:33:35;;;;;;;17.05;10.70;;;11.60;76.00;;;;;;5096277;28;20036;-59
2022/11/16 07:36:09;;;;;;;20.52;10.85;;;11.60;75.90;;;;;;5095498;28;20043;-59
2022/11/16 07:38:35;;;;;;;19.90;10.60;;;11.60;76.00;;;;;;5113389;28;20020;-58
2022/11/16 07:41:01;;;;;;;21.38;12.32;;;11.60;76.10;;;;;;5092268;28;20040;-58
2022/11/16 07:43:30;;;;;;;18.55;11.88;;;11.70;76.20;;;;;;5104387;28;20027;-57
2022/11/16 07:46:08;;;;;;;17.27;11.57;;;11.70;76.20;;;;;;5104299;28;20019;-60
2022/11/16 07:48:34;;;;;;;21.60;11.98;;;11.70;76.30;;;;;;5101560;28;20036;-59
2022/11/16 07:51:01;;;;;;;18.73;11.50;;;11.80;76.00;;;;;;5102456;28;20704;-58
2022/11/16 07:53:26;;;;;;;18.90;11.65;;;11.80;75.90;;;;;;5109716;28;20020;-59
2022/11/16 07:55:53;;;;;;;15.77;10.60;;;11.80;75.90;;;;;;5107628;28;20116;-58
2022/11/16 07:58:19;;;;;;;15.25;9.95;;;11.80;75.90;;;;;;5110132;28;20024;-57
2022/11/16 08:00:46;;;;;;;21.67;12.05;;;11.80;75.90;;;;;;5101839;28;20028;-59
2022/11/16 08:03:11;;;;;;;21.90;12.32;;;11.80;75.90;;;;;;5101379;28;20024;-58
2022/11/16 08:05:37;;;;;;;17.20;11.23;;;11.80;75.90;;;;;;5100910;28;20027;-58
2022/11/16 08:08:04;;;;;;;18.27;11.48;;;11.80;76.00;;;;;;5104707;28;20028;-58
2022/11/16 08:10:30;;;;;;;16.35;11.15;;;11.90;76.00;;;;;;5105925;28;20059;-58
2022/11/16 08:12:56;;;;;;;17.70;11.52;;;11.90;76.00;;;;;;5102095;28;20028;-60
2022/11/16 08:15:22;;;;;;;18.35;11.95;;;11.90;75.80;;;;;;5108036;28;20020;-58
2022/11/16 08:17:48;;;;;;;18.35;12.73;;;11.90;75.80;;;;;;5105851;28;20066;-59
2022/11/16 08:20:15;;;;;;;22.73;13.50;;;11.90;75.80;;;;;;5084230;28;20032;-58
2022/11/16 08:22:41;;;;;;;19.30;12.73;;;12.00;75.90;;;;;;5105852;28;20028;-59
2022/11/16 08:25:07;;;;;;;17.50;13.02;;;12.00;75.90;;;;;;5109660;28;20023;-57
2022/11/16 08:27:33;;;;;;;22.48;13.55;;;12.00;76.00;;;;;;5110290;28;20114;-59
2022/11/16 08:30:01;;;;;;;21.42;14.02;;;12.00;76.00;;;;;;5103380;28;20117;-58
2022/11/16 08:32:28;;;;;;;19.77;13.57;;;12.10;76.10;;;;;;5086260;28;20431;-58
2022/11/16 08:34:54;;;;;;;19.35;13.52;;;12.10;76.00;;;;;;5108354;28;20490;-59
2022/11/16 08:37:20;;;;;;;19.40;13.45;;;12.20;76.00;;;;;;5080355;28;20028;-59
2022/11/16 08:39:46;;;;;;;22.00;14.45;;;12.20;75.90;;;;;;5091225;28;20020;-58
2022/11/16 08:42:12;;;;;;;22.85;14.57;;;12.20;75.90;;;;;;5079647;28;20040;-60
2022/11/16 08:44:37;;;;;;;20.83;14.45;;;12.20;75.90;;;;;;5111686;28;20020;-58
2022/11/16 08:47:03;;;;;;;22.48;15.43;;;12.20;75.90;;;;;;5099504;28;20182;-58
2022/11/16 08:49:32;;;;;;;19.70;13.65;;;12.30;76.00;;;;;;5091953;28;20036;-59
2022/11/16 08:51:59;;;;;;;21.83;14.48;;;12.30;76.10;;;;;;5103383;28;20046;-59
2022/11/16 08:54:27;;;;;;;19.17;14.00;;;12.30;76.00;;;;;;5106592;28;20079;-58
2022/11/16 08:56:53;;;;;;;16.42;12.45;;;12.30;76.00;;;;;;5099611;28;20013;-58
2022/11/16 08:59:18;;;;;;;16.80;11.85;;;12.40;75.80;;;;;;5103745;28;20032;-60
2022/11/16 09:01:44;;;;;;;16.08;11.52;;;12.40;75.60;;;;;;5094360;28;20111;-59
2022/11/16 09:04:10;;;;;;;18.80;12.00;;;12.40;75.60;;;;;;5094470;28;20016;-60
2022/11/16 09:06:36;;;;;;;23.65;12.55;;;12.40;75.70;;;;;;5098563;28;20016;-60
2022/11/16 09:09:02;;;;;;;14.63;10.30;;;12.40;75.70;;;;;;5096582;28;20036;-59
2022/11/16 09:11:28;;;;;;;17.00;10.70;;;12.40;75.70;;;;;;5103534;28;20024;-58
2022/11/16 09:13:54;;;;;;;15.90;11.13;;;12.40;75.80;;;;;;5103608;28;20023;-60
2022/11/16 09:16:22;;;;;;;16.13;11.25;;;12.40;75.90;;;;;;5105593;28;20047;-58
2022/11/16 09:18:49;;;;;;;22.63;12.73;;;12.40;75.90;;;;;;5101087;28;20025;-59
2022/11/16 09:21:23;;;;;;;19.25;13.52;;;12.40;76.00;;;;;;5096759;28;20024;-59
2022/11/16 09:23:49;;;;;;;18.33;12.20;;;12.40;76.20;;;;;;5102354;28;20114;-59
2022/11/16 09:26:19;;;;;;;18.05;10.77;;;12.50;76.10;;;;;;5103289;28;20068;-58
2022/11/16 09:28:45;;;;;;;16.20;10.32;;;12.50;76.10;;;;;;5097033;28;20562;-59
2022/11/16 09:31:10;;;;;;;18.73;10.93;;;12.50;76.10;;;;;;5098231;28;20050;-58
2022/11/16 09:33:37;;;;;;;16.20;10.23;;;12.60;76.30;;;;;;5088560;28;20024;-58
2022/11/16 09:36:07;;;;;;;15.07;9.88;;;12.60;76.50;;;;;;5108797;28;20115;-58
2022/11/16 09:38:40;;;;;;;15.68;10.43;;;12.70;76.70;;;;;;5100738;28;20058;-60
2022/11/16 09:42:07;;;;;;;11.47;9.00;;;12.70;76.70;;;;;;5111780;28;20027;-58
2022/11/16 09:44:55;;;;;;;10.40;7.35;;;12.80;77.10;;;;;;5049365;28;20283;-58
2022/11/16 09:47:25;;;;;;;10.07;7.95;;;12.90;76.20;;;;;;5046644;28;20433;-58
2022/11/16 09:49:53;;;;;;;9.30;6.55;;;13.00;76.20;;;;;;5044515;28;20064;-59
2022/11/16 09:52:37;;;;;;;7.97;6.22;;;13.00;76.50;;;;;;5053053;28;20219;-59
2022/11/16 09:55:25;;;;;;;7.65;5.30;;;13.10;77.40;;;;;;5046363;28;20033;-59
2022/11/16 09:57:54;;;;;;;7.40;4.95;;;13.30;76.70;;;;;;5043282;28;20022;-59
2022/11/16 10:00:22;;;;;;;6.53;4.30;;;13.50;76.50;;;;;;5046735;28;20041;-59
2022/11/16 10:03:04;;;;;;;7.00;4.57;;;13.60;76.20;;;;;;5048483;28;20037;-59
2022/11/16 10:05:42;;;;;;;4.65;4.03;;;13.80;76.10;;;;;;5043228;28;20030;-59
2022/11/16 10:08:40;;;;;;;6.18;4.32;;;13.90;76.00;;;;;;5041917;28;20148;-57
2022/11/16 10:11:24;;;;;;;5.90;4.40;;;14.10;75.70;;;;;;5038147;28;20026;-58
2022/11/16 10:14:27;;;;;;;9.00;4.70;;;14.30;75.70;;;;;;5042425;28;20609;-59
2022/11/16 10:17:15;;;;;;;6.00;4.70;;;14.50;75.60;;;;;;5098877;28;20490;-59
2022/11/16 10:19:52;;;;;;;4.63;3.97;;;14.80;75.10;;;;;;5101792;28;20069;-58
2022/11/16 10:22:23;;;;;;;4.60;3.65;;;15.00;73.80;;;;;;5105879;28;20053;-58
2022/11/16 10:25:17;;;;;;;7.25;3.40;;;15.10;73.40;;;;;;5102753;28;20032;-58
2022/11/16 10:27:55;;;;;;;4.35;2.70;;;15.20;72.40;;;;;;5102846;28;20096;-60
2022/11/16 10:30:21;;;;;;;5.63;2.15;;;15.30;72.40;;;;;;5107606;28;20043;-59
2022/11/16 10:32:53;;;;;;;10.35;1.92;;;15.30;72.00;;;;;;5105742;28;20027;-59
2022/11/16 10:35:30;;;;;;;2.40;1.35;;;15.30;71.30;;;;;;5103946;28;20020;-60
2022/11/16 10:38:02;;;;;;;1.42;0.90;;;15.20;70.60;;;;;;5111854;28;20368;-60
2022/11/16 10:40:36;;;;;;;1.73;0.95;;;15.20;70.10;;;;;;5106709;28;20019;-60
2022/11/16 10:43:14;;;;;;;3.17;1.25;;;15.10;69.50;;;;;;5102524;28;20016;-59
2022/11/16 10:45:54;;;;;;;2.28;1.33;;;15.10;69.70;;;;;;5077117;28;20052;-60
2022/11/16 10:48:48;;;;;;;2.70;1.13;;;15.00;70.20;;;;;;5102479;28;20024;-58
2022/11/16 10:51:14;;;;;;;3.28;1.60;;;15.10;70.40;;;;;;5018365;28;20017;-59
2022/11/16 10:53:42;;;;;;;2.72;1.30;;;15.10;70.90;;;;;;5106944;28;20068;-58
2022/11/16 10:56:20;;;;;;;2.95;1.55;;;15.20;70.70;;;;;;5100537;28;20024;-60
2022/11/16 10:59:01;;;;;;;3.33;1.63;;;15.20;69.80;;;;;;5108078;28;20085;-58
2022/11/16 11:01:26;;;;;;;2.97;1.20;;;15.20;69.90;;;;;;5108968;28;20025;-59
2022/11/16 11:03:53;;;;;;;2.33;1.10;;;15.20;69.80;;;;;;5104268;28;20071;-59
2022/11/16 11:06:24;;;;;;;2.25;1.10;;;15.20;69.70;;;;;;5112779;28;20020;-60
2022/11/16 11:08:50;;;;;;;2.10;1.20;;;15.20;69.30;;;;;;5101587;28;20083;-58
2022/11/16 11:14:14;;;;;;;1.73;1.05;;;15.20;68.90;;;;;;5097453;28;20049;-59
2022/11/16 11:16:40;;;;;;;3.15;1.30;;;15.10;69.00;;;;;;5102256;28;20016;-58
2022/11/16 11:19:35;;;;;;;5.68;2.05;;;15.20;69.30;;;;;;5103214;28;20019;-58
2022/11/16 11:22:00;;;;;;;5.53;1.52;;;15.10;68.80;;;;;;5086662;28;20047;-58
2022/11/16 11:24:27;;;;;;;3.30;1.25;;;15.20;69.20;;;;;;5110299;28;20039;-58
2022/11/16 11:26:59;;;;;;;1.85;0.93;;;15.10;69.40;;;;;;5110495;28;20072;-59
2022/11/16 11:29:35;;;;;;;2.03;1.05;;;15.20;69.10;;;;;;5077098;28;20035;-58
2022/11/16 11:32:14;;;;;;;2.45;1.20;;;15.30;68.60;;;;;;5102854;28;20524;-59
2022/11/16 11:34:46;;;;;;;1.30;1.00;;;15.30;68.80;;;;;;5109046;28;20035;-60
2022/11/16 11:37:34;;;;;;;1.88;0.90;;;15.40;68.80;;;;;;5110904;28;20012;-58
2022/11/16 11:40:17;;;;;;;2.95;1.40;;;15.50;69.00;;;;;;5110822;28;20036;-60
2022/11/16 11:42:51;;;;;;;4.15;1.10;;;15.60;67.60;;;;;;5103856;28;20084;-58
2022/11/16 11:45:18;;;;;;;;;;;15.70;67.30;;;;;;5105579;28;20084;-60
2022/11/16 11:48:00;;;;;;;2.22;1.05;;;15.70;67.90;;;;;;5074107;28;19916;-59
2022/11/16 11:50:39;;;;;;;2.15;0.90;;;15.70;66.90;;;;;;5072046;28;20064;-59
2022/11/16 11:53:22;;;;;;;5.47;1.30;;;15.80;66.90;;;;;;5063946;28;20365;-59
2022/11/16 11:55:56;;;;;;;2.80;1.00;;;15.70;66.80;;;;;;5073374;28;20024;-59
2022/11/16 11:58:32;;;;;;;2.10;0.95;;;15.70;66.20;;;;;;5070269;28;20025;-59
2022/11/16 12:01:21;;;;;;;2.47;0.85;;;15.80;67.10;;;;;;5067358;28;20036;-59
2022/11/16 12:04:16;;;;;;;2.05;1.05;;;15.80;65.60;;;;;;5087997;28;20021;-60
2022/11/16 12:06:51;;;;;;;1.67;0.77;;;15.80;66.40;;;;;;5055447;28;20025;-59
2022/11/16 12:09:24;;;;;;;2.63;0.90;;;15.80;66.20;;;;;;5055727;28;20052;-59
2022/11/16 12:12:02;;;;;;;3.22;1.10;;;15.90;65.60;;;;;;5073003;28;20029;-59
2022/11/16 12:14:33;;;;;;;2.67;1.00;;;15.90;66.10;;;;;;5055760;28;20017;-60
2022/11/16 12:17:15;;;;;;;1.25;0.98;;;15.90;65.50;;;;;;5058515;28;20033;-58
2022/11/16 12:19:47;;;;;;;2.13;1.02;;;15.90;64.80;;;;;;5068770;28;20025;-58
2022/11/16 12:22:35;;;;;;;3.00;1.63;;;15.90;64.30;;;;;;5069026;28;20047;-59
2022/11/16 12:25:23;;;;;;;3.55;1.38;;;16.00;63.50;;;;;;5064852;28;20032;-60
2022/11/16 12:27:49;;;;;;;5.25;2.35;;;16.00;63.30;;;;;;5073550;28;20078;-61
2022/11/16 12:30:18;;;;;;;3.83;2.20;;;16.00;65.00;;;;;;5068922;28;20029;-58
2022/11/16 12:32:50;;;;;;;10.15;1.80;;;16.10;64.60;;;;;;5071545;28;20029;-59
2022/11/16 12:35:21;;;;;;;2.80;1.10;;;16.10;64.20;;;;;;5068081;28;20052;-59
2022/11/16 12:38:02;;;;;;;4.45;2.75;;;16.10;64.00;;;;;;5070241;28;20098;-59
2022/11/16 12:41:05;;;;;;;4.68;2.55;;;16.10;64.80;;;;;;5065078;28;20428;-61
2022/11/16 12:43:51;;;;;;;1.45;1.10;;;16.20;64.70;;;;;;5063965;28;20052;-59
2022/11/16 12:46:22;;;;;;;2.95;1.30;;;16.20;64.30;;;;;;5061973;28;20055;-58
2022/11/16 12:49:23;;;;;;;2.67;1.42;;;16.30;64.20;;;;;;5094674;28;20099;-60
2022/11/16 12:51:58;;;;;;;3.88;1.35;;;16.30;63.50;;;;;;5050918;28;20478;-58
2022/11/16 12:55:07;;;;;;;2.42;1.10;;;16.30;63.60;;;;;;5108730;28;20024;-59
2022/11/16 12:57:59;;;;;;;2.45;1.17;;;16.30;63.10;;;;;;5102834;28;20032;-59
2022/11/16 13:00:27;;;;;;;1.92;1.00;;;16.30;63.30;;;;;;5104120;28;20032;-59
2022/11/16 13:03:32;;;;;;;1.73;1.10;;;16.30;64.00;;;;;;5106391;28;20023;-60
2022/11/16 13:06:09;;;;;;;3.70;1.70;;;16.30;63.60;;;;;;5104700;28;20406;-59
2022/11/16 13:09:01;;;;;;;5.20;2.03;;;16.30;64.00;;;;;;5108457;28;20027;-59
2022/11/16 13:11:47;;;;;;;4.63;1.25;;;16.30;63.60;;;;;;5100063;28;20023;-58
2022/11/16 13:14:22;;;;;;;1.45;1.17;;;16.30;64.20;;;;;;5101508;28;20049;-59
2022/11/16 13:16:48;;;;;;;1.65;1.00;;;16.30;63.80;;;;;;5104615;28;20084;-60
2022/11/16 13:19:15;;;;;;;2.70;1.27;;;16.30;64.00;;;;;;5107787;28;20031;-60
2022/11/16 13:21:50;;;;;;;1.55;1.23;;;16.30;64.10;;;;;;5093465;28;20078;-59
2022/11/16 13:24:22;;;;;;;2.22;1.15;;;16.30;63.70;;;;;;5098521;28;20089;-59
2022/11/16 13:27:13;;;;;;;3.55;1.33;;;16.30;63.60;;;;;;5107260;28;20027;-59
2022/11/16 13:30:08;;;;;;;4.53;1.20;;;16.30;64.10;;;;;;5079081;28;20107;-59
2022/11/16 13:32:53;;;;;;;2.63;1.10;;;16.30;63.80;;;;;;5088969;28;20059;-58
2022/11/16 13:35:19;;;;;;;3.65;1.20;;;16.30;62.50;;;;;;5109342;28;20048;-60
2022/11/16 13:37:47;;;;;;;2.35;1.25;;;16.40;64.00;;;;;;5112172;28;20028;-59
2022/11/16 13:40:30;;;;;;;6.30;1.27;;;16.50;63.40;;;;;;5107135;28;20065;-59
2022/11/16 13:43:11;;;;;;;1.73;1.02;;;16.60;62.20;;;;;;5102585;28;20028;-59
2022/11/16 13:45:48;;;;;;;2.70;1.10;;;16.70;61.70;;;;;;5103322;28;20031;-62
2022/11/16 13:48:20;;;;;;;3.58;1.10;;;16.80;61.30;;;;;;5103740;28;20039;-61
2022/11/16 13:50:54;;;;;;;3.35;1.15;;;16.80;61.20;;;;;;5104850;28;20525;-59